Time;durP1;ratioP1;P1;durP2;ratioP2;P2;SDS_P1;SDS_P2;PMS_P1;PMS_P2;Temp;Humidity;BMP_temperature;BMP_pressure;BME280_temperature;BME280_humidity;BME280_pressure;Samples;Min_cycle;Max_cycle;Signal;HPM_P1;HPM_P2
2021/07/06 00:00:10;;;;;;;;;2.00;2.00;;;;;26.58;46.17;99995.03;5060012;28;45489;-74
2021/07/06 00:02:35;;;;;;;;;1.25;1.25;;;;;26.74;46.42;100022.06;5060106;28;45447;-74
2021/07/06 00:05:00;;;;;;;;;4.25;3.00;;;;;26.81;46.27;100022.75;5059574;28;45232;-74
2021/07/06 00:07:27;;;;;;;;;3.00;2.00;;;;;26.83;46.46;100025.16;5058455;28;47943;-74
2021/07/06 00:09:52;;;;;;;;;5.33;2.33;;;;;26.76;46.26;100013.81;5059983;28;45241;-74
2021/07/06 00:12:18;;;;;;;;;1.75;1.50;;;;;26.70;46.27;100005.69;5059824;28;45345;-74
2021/07/06 00:14:44;;;;;;;;;2.33;2.00;;;;;26.74;46.20;100014.88;5060028;28;45422;-74
2021/07/06 00:17:10;;;;;;;;;3.00;1.33;;;;;26.60;45.81;99992.94;5060129;28;47252;-74
2021/07/06 00:19:36;;;;;;;;;2.00;1.25;;;;;26.48;46.07;99976.13;5075384;28;45429;-74
2021/07/06 00:22:02;;;;;;;;;3.25;2.00;;;;;26.81;46.53;100022.75;5060032;28;45364;-74
2021/07/06 00:24:27;;;;;;;;;3.50;1.75;;;;;26.74;46.12;100014.03;5059685;28;45521;-74
2021/07/06 00:26:53;;;;;;;;;2.00;2.00;;;;;26.65;46.43;99989.56;5057947;28;48137;-74
2021/07/06 00:29:18;;;;;;;;;1.75;1.75;;;;;26.61;46.33;99989.22;5062185;28;45220;-74
2021/07/06 00:31:44;;;;;;;;;1.25;1.25;;;;;26.61;46.35;99981.22;5059963;28;45453;-74
2021/07/06 00:34:10;;;;;;;;;2.00;2.00;;;;;26.74;46.32;100000.69;5059132;28;45303;-74
2021/07/06 00:36:35;;;;;;;;;2.33;2.33;;;;;26.80;46.27;100005.13;5061608;28;46406;-74
2021/07/06 00:39:01;;;;;;;;;3.00;2.75;;;;;26.82;46.41;100016.38;5068057;27;45475;-74
2021/07/06 00:41:28;;;;;;;;;5.00;1.50;;;;;26.34;46.36;99936.31;5059266;28;45213;-74
2021/07/06 00:43:53;;;;;;;;;1.25;0.75;;;;;26.68;46.57;99997.09;5070880;28;45606;-74
2021/07/06 00:46:19;;;;;;;;;1.33;0.33;;;;;26.57;46.16;99982.72;5079571;28;45341;-74
2021/07/06 00:48:44;;;;;;;;;3.00;1.00;;;;;26.53;46.18;99986.91;5080204;28;45215;-74
2021/07/06 00:51:10;;;;;;;;;3.00;1.00;;;;;26.72;45.93;100011.63;5079836;28;45158;-74
2021/07/06 00:53:35;;;;;;;;;1.00;1.00;;;;;26.76;46.08;100016.47;5079959;28;45510;-74
2021/07/06 00:56:01;;;;;;;;;2.00;2.00;;;;;26.72;46.10;100021.47;5078107;28;48193;-74
2021/07/06 00:58:27;;;;;;;;;1.00;1.00;;;;;26.59;46.35;99991.31;5079799;28;45382;-74
2021/07/06 01:00:53;;;;;;;;;3.00;1.00;;;;;26.63;46.49;99994.31;5079613;28;45400;-74
2021/07/06 01:03:19;;;;;;;;;0.67;0.67;;;;;26.49;46.65;99980.44;5076262;28;45354;-74
2021/07/06 01:05:44;;;;;;;;;2.67;1.00;;;;;26.70;46.26;100029.69;5079202;28;45720;-75
2021/07/06 01:08:10;;;;;;;;;3.33;1.67;;;;;26.59;46.37;99999.34;5078134;28;45341;-75
2021/07/06 01:10:36;;;;;;;;;2.33;1.00;;;;;26.49;46.31;99991.88;5079167;28;45246;-75
2021/07/06 01:13:04;;;;;;;;;1.67;1.00;;;;;26.66;46.28;100015.22;5067579;28;45522;-75
2021/07/06 01:15:31;;;;;;;;;2.00;2.00;;;;;26.63;46.64;100021.81;5059644;28;46227;-74
2021/07/06 01:18:17;;;;;;;;;5.00;2.00;;;;;26.54;46.44;100007.22;5062156;28;45386;-74
2021/07/06 01:20:46;;;;;;;;;1.33;0.67;;;;;26.64;46.24;100030.63;5062597;28;45564;-74
2021/07/06 01:23:12;;;;;;;;;1.33;0.33;;;;;26.64;46.31;100027.97;5061169;28;45283;-74
2021/07/06 01:25:39;;;;;;;;;2.00;1.67;;;;;26.46;45.76;100012.88;5060601;28;47218;-74
2021/07/06 01:28:05;;;;;;;;;3.00;2.00;;;;;26.65;45.95;100036.78;5062465;28;45477;-74
2021/07/06 01:30:31;;;;;;;;;2.00;2.00;;;;;26.72;46.06;100048.97;5066548;28;45465;-74
2021/07/06 01:32:57;;;;;;;;;1.33;1.33;;;;;26.51;46.25;100007.66;5062569;28;45528;-74
2021/07/06 01:35:23;;;;;;;;;3.67;0.67;;;;;26.62;45.98;100022.06;5077708;28;47218;-74
2021/07/06 01:37:51;;;;;;;;;2.33;1.00;;;;;26.23;46.66;99963.78;5070985;28;45437;-74
2021/07/06 01:40:19;;;;;;;;;1.00;1.00;;;;;26.58;45.96;100010.22;5062497;28;45363;-74
2021/07/06 01:42:46;;;;;;;;;4.00;2.00;;;;;26.72;46.14;100024.16;5064077;28;45304;-74
2021/07/06 01:45:18;;;;;;;;;0.33;0.33;;;;;26.73;46.02;100037.25;5074814;28;45480;-74
2021/07/06 01:47:46;;;;;;;;;2.67;1.33;;;;;26.72;46.13;100040.97;5060608;28;45194;-74
2021/07/06 01:50:15;;;;;;;;;1.67;1.00;;;;;26.75;46.18;100058.38;5062223;28;45329;-74
2021/07/06 01:52:42;;;;;;;;;1.67;1.00;;;;;26.63;46.11;100045.00;5060590;28;45414;-74
2021/07/06 01:55:12;;;;;;;;;2.00;2.00;;;;;26.45;46.07;99998.72;5061839;28;45457;-74
2021/07/06 01:57:40;;;;;;;;;3.33;2.67;;;;;26.64;45.75;100046.66;5061930;28;45421;-74
2021/07/06 02:00:07;;;;;;;;;4.00;1.00;;;;;26.49;46.00;100031.88;5060728;28;45343;-74
2021/07/06 02:02:33;;;;;;;;;3.00;1.00;;;;;26.45;45.78;100041.41;5061429;28;45449;-74
2021/07/06 02:05:27;;;;;;;;;3.00;1.00;;;;;26.65;45.96;100087.47;5060270;28;45401;-75
2021/07/06 02:07:52;;;;;;;;;1.00;1.00;;;;;26.57;45.95;100075.28;5067325;28;45251;-75
2021/07/06 02:10:20;;;;;;;;;1.00;1.00;;;;;26.51;45.99;100069.03;5081753;28;45159;-74
2021/07/06 02:12:46;;;;;;;;;1.00;1.00;;;;;26.38;45.77;100054.81;5081900;28;45478;-74
2021/07/06 02:15:15;;;;;;;;;3.67;1.00;;;;;26.59;46.08;100081.22;5081581;28;46414;-74
2021/07/06 02:17:44;;;;;;;;;1.67;1.33;;;;;26.65;45.80;100090.16;5080731;28;45287;-74
2021/07/06 02:20:13;;;;;;;;;2.75;2.00;;;;;26.44;45.99;100066.44;5081884;28;45174;-75
2021/07/06 02:22:41;;;;;;;;;3.33;1.00;;;;;26.63;45.99;100095.69;5081939;28;45378;-75
2021/07/06 02:25:08;;;;;;;;;0.33;0.33;;;;;26.43;46.16;100066.66;5081133;28;46205;-75
2021/07/06 02:27:34;;;;;;;;;1.00;1.00;;;;;26.61;46.16;100098.59;5080359;28;45510;-74
2021/07/06 02:30:00;;;;;;;;;0.33;0.33;;;;;26.26;45.95;100052.13;5078157;28;45393;-74
2021/07/06 02:32:25;;;;;;;;;0.33;0.00;;;;;26.65;45.82;100111.50;5061516;28;45554;-74
2021/07/06 02:34:51;;;;;;;;;1.33;0.00;;;;;26.40;45.66;100073.25;5061459;28;46317;-74
2021/07/06 02:37:16;;;;;;;;;1.00;1.00;;;;;26.62;45.92;100102.09;5070672;28;45438;-74
2021/07/06 02:39:42;;;;;;;;;2.33;1.00;;;;;26.53;45.69;100096.28;5064876;27;45330;-74
2021/07/06 02:42:08;;;;;;;;;1.00;1.00;;;;;26.46;45.64;100082.22;5059775;28;45591;-74
2021/07/06 02:44:34;;;;;;;;;1.00;0.33;;;;;26.38;45.82;100070.00;5078440;28;45394;-74
2021/07/06 02:46:59;;;;;;;;;1.00;1.00;;;;;26.55;46.18;100096.03;5080277;28;45790;-74
2021/07/06 02:49:25;;;;;;;;;1.00;1.00;;;;;26.38;45.73;100072.69;5081318;28;45361;-74
2021/07/06 02:51:50;;;;;;;;;1.00;1.00;;;;;26.22;45.86;100034.16;5080346;28;45298;-74
2021/07/06 02:54:15;;;;;;;;;1.00;1.00;;;;;26.29;45.69;100040.19;5069759;28;46377;-74
2021/07/06 02:56:41;;;;;;;;;0.67;0.67;;;;;26.60;45.82;100078.28;5060849;28;45316;-74
2021/07/06 02:59:06;;;;;;;;;4.33;2.33;;;;;26.55;45.93;100067.50;5061038;28;45295;-74
2021/07/06 03:01:32;;;;;;;;;0.00;0.00;;;;;26.43;46.07;100047.97;5061155;28;45142;-74
2021/07/06 03:03:57;;;;;;;;;1.00;1.00;;;;;26.35;45.71;100033.13;5060764;28;45323;-74
2021/07/06 03:06:23;;;;;;;;;1.00;1.00;;;;;26.51;45.65;100064.50;5059237;28;45274;-74
2021/07/06 03:08:52;;;;;;;;;1.00;1.00;;;;;26.63;45.79;100085.84;5060675;28;45243;-74
2021/07/06 03:11:17;;;;;;;;;1.00;1.00;;;;;26.46;45.69;100052.91;5060592;28;45428;-74
2021/07/06 03:13:43;;;;;;;;;2.00;1.00;;;;;26.55;45.87;100067.50;5060520;28;45562;-74
2021/07/06 03:16:08;;;;;;;;;1.00;1.00;;;;;26.58;45.79;100074.25;5061489;28;45492;-74
2021/07/06 03:18:34;;;;;;;;;1.00;1.00;;;;;26.51;45.73;100051.16;5061159;28;45326;-74
2021/07/06 03:20:59;;;;;;;;;2.00;0.00;;;;;26.27;45.88;100013.75;5060422;28;45455;-74
2021/07/06 03:23:26;;;;;;;;;0.67;0.67;;;;;26.51;45.94;100053.84;5059104;28;47220;-74
2021/07/06 03:25:51;;;;;;;;;0.33;0.33;;;;;26.62;45.80;100072.75;5058534;28;45193;-74
2021/07/06 03:28:17;;;;;;;;;1.67;1.00;;;;;26.68;45.54;100081.66;5059187;28;45252;-74
2021/07/06 03:30:42;;;;;;;;;1.00;1.00;;;;;26.65;45.64;100076.81;5064304;28;45231;-74
2021/07/06 03:33:09;;;;;;;;;0.33;0.33;;;;;26.32;45.81;100014.91;5059130;28;46871;-74
2021/07/06 03:35:36;;;;;;;;;1.00;1.00;;;;;26.27;45.42;100007.59;5060268;28;45275;-74
2021/07/06 03:38:02;;;;;;;;;1.33;1.33;;;;;26.63;45.61;100061.84;5072099;28;45505;-74
2021/07/06 03:40:29;;;;;;;;;1.00;1.00;;;;;26.52;45.51;100063.44;5058831;28;45588;-74
2021/07/06 03:42:54;;;;;;;;;0.67;0.67;;;;;26.23;45.35;100027.78;5075824;28;47531;-74
2021/07/06 03:45:21;;;;;;;;;1.33;1.00;;;;;26.54;45.33;100081.91;5058966;28;45541;-74
2021/07/06 03:47:46;;;;;;;;;2.00;1.00;;;;;26.59;45.63;100090.03;5059096;28;45324;-74
2021/07/06 03:50:18;;;;;;;;;0.00;0.00;;;;;26.20;45.74;100020.25;5060357;28;45485;-74
2021/07/06 03:52:49;;;;;;;;;1.33;0.00;;;;;26.55;45.79;100078.19;5060146;28;46236;-74
2021/07/06 03:55:16;;;;;;;;;1.00;0.67;;;;;26.45;45.31;100059.25;5058313;28;45496;-74
2021/07/06 03:57:42;;;;;;;;;0.67;0.67;;;;;26.25;45.34;100018.50;5060282;28;45411;-74
2021/07/06 04:00:10;;;;;;;;;1.00;1.00;;;;;26.48;45.74;100046.28;5059903;28;45519;-74
2021/07/06 04:02:37;;;;;;;;;1.00;1.00;;;;;26.41;45.44;100024.22;5059832;28;47634;-74
2021/07/06 04:05:05;;;;;;;;;3.00;2.00;;;;;26.46;45.72;100034.22;5060126;28;45247;-74
2021/07/06 04:07:30;;;;;;;;;1.00;1.00;;;;;26.52;45.68;100052.78;5058658;28;45307;-74
2021/07/06 04:09:56;;;;;;;;;1.00;1.00;;;;;26.52;45.58;100041.28;5059642;28;45330;-74
2021/07/06 04:12:22;;;;;;;;;1.00;1.00;;;;;26.41;45.81;100035.69;5058577;28;47168;-74
2021/07/06 04:14:47;;;;;;;;;1.00;0.00;;;;;26.51;45.33;100043.16;5059990;28;45339;-74
2021/07/06 04:17:13;;;;;;;;;1.00;1.00;;;;;26.35;45.72;100009.94;5058630;28;45399;-74
2021/07/06 04:19:38;;;;;;;;;2.33;1.00;;;;;26.52;45.50;100051.94;5058664;28;45245;-74
2021/07/06 04:22:04;;;;;;;;;0.67;0.67;;;;;26.34;45.23;100018.16;5059755;28;46517;-74
2021/07/06 04:24:30;;;;;;;;;2.33;1.33;;;;;26.41;45.62;100018.88;5061647;28;45350;-74
2021/07/06 04:26:59;;;;;;;;;1.33;1.33;;;;;26.39;45.41;100020.94;5079517;28;45531;-74
2021/07/06 04:29:25;;;;;;;;;0.00;0.00;;;;;26.50;45.53;100040.72;5078584;28;45409;-74
2021/07/06 04:31:52;;;;;;;;;0.00;0.00;;;;;26.50;45.44;100035.38;5060258;27;45361;-74
2021/07/06 04:34:18;;;;;;;;;1.00;1.00;;;;;26.49;45.23;100033.78;5059952;28;45415;-74
2021/07/06 04:36:43;;;;;;;;;0.33;0.33;;;;;26.23;45.14;99996.59;5062797;28;45322;-74
2021/07/06 04:39:09;;;;;;;;;1.67;1.00;;;;;26.48;45.22;100026.78;5073984;27;45443;-74
2021/07/06 04:41:34;;;;;;;;;0.00;0.00;;;;;26.39;45.33;100019.09;5079438;28;45376;-74
2021/07/06 04:44:00;;;;;;;;;0.00;0.00;;;;;26.52;45.65;100033.28;5078381;28;45656;-74
2021/07/06 04:46:25;;;;;;;;;1.67;1.00;;;;;26.37;45.17;100010.53;5079499;27;45248;-74
2021/07/06 04:48:51;;;;;;;;;0.67;0.67;;;;;26.36;45.07;100005.44;5078639;28;45226;-74
2021/07/06 04:51:16;;;;;;;;;2.67;1.00;;;;;26.41;45.38;100027.69;5081769;28;45741;-74
2021/07/06 04:53:42;;;;;;;;;1.00;1.00;;;;;26.50;45.17;100030.84;5082054;28;45354;-75
2021/07/06 04:56:07;;;;;;;;;0.00;0.00;;;;;26.15;45.29;99978.28;5083260;28;45324;-74
2021/07/06 04:58:35;;;;;;;;;0.67;0.00;;;;;26.51;45.26;100042.34;5083348;28;45548;-75
2021/07/06 05:01:00;;;;;;;;;2.00;0.33;;;;;26.40;45.39;100023.41;5081435;28;46651;-75
2021/07/06 05:03:28;;;;;;;;;0.67;0.67;;;;;26.45;45.48;100029.91;5083047;28;45367;-75
2021/07/06 05:05:54;;;;;;;;;1.00;0.00;;;;;26.42;45.20;100036.50;5082989;28;45310;-75
2021/07/06 05:08:20;;;;;;;;;0.67;0.00;;;;;26.34;44.85;100018.97;5081229;28;45572;-75
2021/07/06 05:10:46;;;;;;;;;0.00;0.00;;;;;26.48;45.08;100040.94;5081446;28;47121;-75
2021/07/06 05:13:11;;;;;;;;;2.00;1.00;;;;;26.45;45.13;100049.41;5083064;28;45377;-75
2021/07/06 05:15:37;;;;;;;;;1.33;1.00;;;;;26.51;45.11;100058.34;5083059;28;45286;-75
2021/07/06 05:18:02;;;;;;;;;1.00;1.00;;;;;26.51;44.85;100055.69;5081698;28;45545;-74
2021/07/06 05:20:28;;;;;;;;;1.00;1.00;;;;;26.38;45.30;100046.00;5098423;27;46824;-74
2021/07/06 05:22:54;;;;;;;;;1.00;1.00;;;;;26.43;45.01;100058.66;5082981;28;45218;-75
2021/07/06 05:25:19;;;;;;;;;0.00;0.00;;;;;26.18;45.24;100015.94;5082225;28;45490;-75
2021/07/06 05:27:45;;;;;;;;;0.00;0.00;;;;;26.36;45.26;100040.88;5081593;28;45547;-75
2021/07/06 05:30:11;;;;;;;;;1.00;0.00;;;;;26.34;45.25;100042.97;5088424;27;47055;-75
2021/07/06 05:32:38;;;;;;;;;0.00;0.00;;;;;26.45;45.28;100052.06;5062539;28;45453;-75
2021/07/06 05:35:05;;;;;;;;;1.00;1.00;;;;;26.36;44.99;100032.09;5062131;28;45321;-74
2021/07/06 05:37:31;;;;;;;;;1.00;0.67;;;;;26.37;44.81;100050.53;5073471;28;45491;-74
2021/07/06 05:39:56;;;;;;;;;0.00;0.00;;;;;26.28;44.66;100038.56;5061518;28;47190;-76
2021/07/06 05:42:22;;;;;;;;;1.00;1.00;;;;;26.46;44.91;100075.03;5062211;28;45301;-73
2021/07/06 05:44:47;;;;;;;;;1.00;1.00;;;;;26.14;44.83;100016.63;5080103;28;45376;-73
2021/07/06 05:47:14;;;;;;;;;1.00;1.00;;;;;26.46;44.71;100072.38;5082487;28;45560;-76
2021/07/06 05:49:39;;;;;;;;;1.00;1.00;;;;;26.43;44.59;100080.81;5098105;27;47423;-71
2021/07/06 05:52:05;;;;;;;;;2.33;1.00;;;;;26.43;44.95;100072.81;5082304;28;45224;-72
2021/07/06 05:54:31;;;;;;;;;0.33;0.33;;;;;26.45;45.11;100081.41;5082532;28;45321;-73
2021/07/06 05:56:56;;;;;;;;;3.00;0.67;;;;;26.47;44.99;100084.66;5082121;28;45329;-76
2021/07/06 05:59:21;;;;;;;;;1.33;1.33;;;;;26.38;44.87;100076.16;5080756;28;48123;-76
2021/07/06 06:01:47;;;;;;;;;0.67;0.67;;;;;26.49;44.91;100090.56;5080412;28;45354;-76
2021/07/06 06:04:13;;;;;;;;;0.75;0.75;;;;;26.42;44.71;100089.84;5081061;28;45406;-75
2021/07/06 06:06:38;;;;;;;;;3.00;1.00;;;;;26.46;45.08;100096.38;5075700;28;45628;-75
2021/07/06 06:09:04;;;;;;;;;1.00;1.00;;;;;26.33;45.00;100077.88;5071699;28;46095;-76
2021/07/06 06:11:29;;;;;;;;;3.00;1.33;;;;;26.43;44.87;100079.97;5080106;28;45547;-78
2021/07/06 06:13:55;;;;;;;;;1.00;1.00;;;;;26.48;44.84;100099.63;5063662;28;45277;-78
2021/07/06 06:16:20;;;;;;;;;1.67;0.67;;;;;26.37;45.16;100076.38;5061714;28;45414;-70
2021/07/06 06:18:53;;;;;;;;;1.67;1.00;;;;;26.38;45.27;100102.00;5071006;28;46213;-74
2021/07/06 06:21:19;;;;;;;;;0.00;0.00;;;;;26.46;45.18;100104.38;5070965;28;45322;-74
2021/07/06 06:23:45;;;;;;;;;0.00;0.00;;;;;26.53;45.15;100128.28;5070754;28;45306;-74
2021/07/06 06:26:10;;;;;;;;;1.00;1.00;;;;;26.54;45.12;100123.75;5069975;28;45260;-74
2021/07/06 06:28:36;;;;;;;;;1.67;1.67;;;;;26.34;44.90;100095.50;5062280;28;45602;-72
2021/07/06 06:31:01;;;;;;;;;0.00;0.00;;;;;26.34;44.92;100098.16;5065350;28;45309;-71
2021/07/06 06:33:27;;;;;;;;;1.00;1.00;;;;;26.47;45.53;100124.66;5060445;28;45592;-76
2021/07/06 06:35:52;;;;;;;;;2.67;1.00;;;;;26.45;45.33;100120.59;5060743;28;45277;-77
2021/07/06 06:38:18;;;;;;;;;1.00;1.00;;;;;26.12;45.21;100067.50;5073797;28;46386;-77
2021/07/06 06:40:43;;;;;;;;;1.00;1.00;;;;;26.43;45.22;100112.81;5059973;28;45435;-77
2021/07/06 06:43:08;;;;;;;;;2.00;2.00;;;;;26.53;45.36;100133.63;5065369;28;45572;-78
2021/07/06 06:45:34;;;;;;;;;1.00;1.00;;;;;26.46;45.24;100131.06;5080434;28;45283;-77
2021/07/06 06:48:00;;;;;;;;;3.00;1.00;;;;;26.52;45.24;100139.97;5081730;28;45404;-77
2021/07/06 06:50:25;;;;;;;;;2.00;2.00;;;;;26.38;45.35;100124.16;5080908;28;45322;-76
2021/07/06 06:52:51;;;;;;;;;4.00;3.67;;;;;26.35;45.39;100113.13;5080470;27;45405;-77
2021/07/06 06:55:16;;;;;;;;;2.00;2.00;;;;;26.42;44.80;100140.50;5081480;28;45405;-76
2021/07/06 06:57:42;;;;;;;;;3.00;2.67;;;;;26.23;44.98;100107.78;5079984;28;47039;-77
2021/07/06 07:00:09;;;;;;;;;3.00;2.00;;;;;26.32;45.08;100116.25;5081303;28;45349;-77
2021/07/06 07:02:35;;;;;;;;;1.67;1.00;;;;;26.31;45.12;100115.41;5081541;28;45419;-77
2021/07/06 07:05:01;;;;;;;;;0.33;0.33;;;;;26.39;45.28;100139.09;5077477;28;46794;-77
2021/07/06 07:07:26;;;;;;;;;3.50;3.00;;;;;26.25;45.02;100121.69;5060401;28;46535;-77
2021/07/06 07:09:52;;;;;;;;;1.75;1.00;;;;;26.25;44.92;100124.34;5075606;28;45558;-77
2021/07/06 07:12:19;;;;;;;;;1.00;1.00;;;;;26.51;44.68;100173.03;5060923;28;46521;-77
2021/07/06 07:14:45;;;;;;;;;1.67;1.67;;;;;26.36;44.75;100136.88;5060033;28;45290;-77
2021/07/06 07:17:11;;;;;;;;;3.00;3.00;;;;;26.25;44.79;100121.69;5060388;28;46315;-77
2021/07/06 07:19:37;;;;;;;;;2.33;2.33;;;;;26.31;45.03;100142.09;5060931;28;45319;-77
2021/07/06 07:22:04;;;;;;;;;3.00;1.00;;;;;26.20;44.93;100121.53;5059308;28;45346;-77
2021/07/06 07:24:30;;;;;;;;;1.67;1.67;;;;;26.47;45.12;100175.34;5075609;28;45462;-78
2021/07/06 07:26:56;;;;;;;;;4.33;2.33;;;;;26.48;44.85;100176.16;5059750;28;45349;-77
2021/07/06 07:29:22;;;;;;;;;2.33;1.33;;;;;26.27;44.83;100154.25;5062477;28;45375;-77
2021/07/06 07:31:47;;;;;;;;;2.00;2.00;;;;;26.54;44.62;100199.28;5058978;28;45328;-77
2021/07/06 07:34:13;;;;;;;;;3.25;2.00;;;;;26.41;44.63;100174.34;5060179;28;45238;-78
2021/07/06 07:36:41;;;;;;;;;3.00;1.67;;;;;26.54;44.62;100207.28;5079182;28;48063;-78
2021/07/06 07:39:07;;;;;;;;;1.00;1.00;;;;;26.34;44.71;100172.81;5066188;28;45551;-78
2021/07/06 07:41:32;;;;;;;;;1.00;1.00;;;;;26.51;44.80;100205.06;5060093;28;45446;-78
2021/07/06 07:43:57;;;;;;;;;2.00;1.00;;;;;26.41;44.86;100187.69;5072613;28;45409;-78
2021/07/06 07:46:24;;;;;;;;;1.33;1.33;;;;;26.46;44.59;100192.41;5079086;28;48121;-78
2021/07/06 07:48:50;;;;;;;;;1.67;1.00;;;;;26.38;44.65;100190.84;5079505;28;45388;-78
2021/07/06 07:51:16;;;;;;;;;3.33;1.33;;;;;26.52;44.80;100209.34;5080581;28;45258;-77
2021/07/06 07:53:42;;;;;;;;;1.00;1.00;;;;;26.42;44.85;100204.50;5080839;28;45448;-77
2021/07/06 07:56:08;;;;;;;;;4.67;1.00;;;;;26.34;44.45;100202.97;5080195;28;45633;-77
2021/07/06 07:58:33;;;;;;;;;4.67;1.00;;;;;26.43;44.75;100222.16;5080439;28;45216;-77
2021/07/06 08:00:59;;;;;;;;;1.00;1.00;;;;;26.28;44.56;100204.69;5079140;28;45957;-77
2021/07/06 08:03:24;;;;;;;;;2.25;1.50;;;;;26.30;44.35;100207.16;5080635;28;45418;-77
2021/07/06 08:05:50;;;;;;;;;4.00;2.00;;;;;26.33;44.47;100214.69;5064241;28;46487;-77
2021/07/06 08:08:15;;;;;;;;;1.00;1.00;;;;;26.50;44.58;100249.59;5059657;28;45528;-78
2021/07/06 08:10:41;;;;;;;;;2.00;2.00;;;;;26.48;44.44;100249.00;5074943;28;45373;-77
2021/07/06 08:13:09;;;;;;;;;2.00;2.00;;;;;26.50;44.00;100259.44;5060078;28;45434;-78
2021/07/06 08:15:34;;;;;;;;;1.67;1.67;;;;;26.42;44.87;100239.19;5058579;28;47462;-78
2021/07/06 08:18:00;;;;;;;;;1.00;1.00;;;;;26.52;44.73;100260.00;5058634;28;45366;-78
2021/07/06 08:20:25;;;;;;;;;3.00;1.00;;;;;26.49;44.47;100268.50;5059987;28;45213;-78
2021/07/06 08:22:55;;;;;;;;;2.00;2.00;;;;;26.48;44.39;100258.84;5058723;28;45409;-77
2021/07/06 08:25:22;;;;;;;;;2.00;2.00;;;;;26.51;44.75;100274.41;5061601;28;46349;-77
2021/07/06 08:27:47;;;;;;;;;1.00;1.00;;;;;26.45;44.37;100257.44;5063516;28;45571;-77
2021/07/06 08:30:13;;;;;;;;;3.00;1.00;;;;;26.37;44.52;100263.88;5068766;28;47677;-77
2021/07/06 08:32:39;;;;;;;;;3.50;3.00;;;;;26.56;44.56;100276.41;5063405;28;45338;-77
2021/07/06 08:35:06;;;;;;;;;2.00;2.00;;;;;26.49;44.63;100266.63;5061330;28;46777;-78
2021/07/06 08:37:31;;;;;;;;;2.00;2.00;;;;;26.56;44.22;100287.06;5069669;28;45889;-78
2021/07/06 08:39:57;;;;;;;;;1.00;1.00;;;;;26.41;44.20;100249.03;5062660;28;45351;-78
2021/07/06 08:42:22;;;;;;;;;1.00;1.00;;;;;26.29;44.30;100246.31;5063160;28;45249;-77
2021/07/06 08:44:48;;;;;;;;;1.33;1.33;;;;;26.66;44.54;100291.84;5082263;28;45566;-77
2021/07/06 08:47:17;;;;;;;;;1.00;1.00;;;;;26.64;44.20;100294.75;5071007;28;45267;-77
2021/07/06 08:49:47;;;;;;;;;1.00;1.00;;;;;26.62;44.25;100296.84;5063253;28;45612;-78
2021/07/06 08:52:14;;;;;;;;;2.00;1.00;;;;;26.46;44.08;100283.09;5063067;28;45274;-77
2021/07/06 08:54:39;;;;;;;;;1.50;1.50;;;;;26.60;44.34;100297.06;5078340;28;47623;-78
2021/07/06 08:57:06;;;;;;;;;1.67;1.00;;;;;26.27;44.64;100247.59;5061638;28;45248;-78
2021/07/06 08:59:37;;;;;;;;;1.00;1.00;;;;;26.62;44.28;100302.19;5063017;28;45283;-78
2021/07/06 09:02:03;;;;;;;;;2.00;1.00;;;;;26.65;43.92;100335.59;5062598;28;45320;-78
2021/07/06 09:04:48;;;;;;;;;1.67;1.67;;;;;26.59;44.17;100310.63;5062984;28;45345;-78
2021/07/06 09:07:14;;;;;;;;;1.67;1.00;;;;;26.73;44.19;100356.63;5062720;28;45339;-78
2021/07/06 09:09:40;;;;;;;;;2.00;1.00;;;;;26.37;44.19;100293.22;5062682;28;45324;-78
2021/07/06 09:12:08;;;;;;;;;4.33;2.00;;;;;26.38;43.79;100296.69;5062832;28;45339;-78
2021/07/06 09:14:37;;;;;;;;;0.00;0.00;;;;;26.63;44.49;100338.47;5062650;28;45343;-78
2021/07/06 09:17:24;;;;;;;;;1.00;1.00;;;;;26.72;43.97;100361.16;5062723;28;45600;-78
2021/07/06 09:19:52;;;;;;;;;1.00;1.00;;;;;26.37;43.89;100311.88;5062767;28;45292;-78
2021/07/06 09:22:19;;;;;;;;;1.33;1.33;;;;;26.51;44.38;100341.09;5061121;28;45393;-78
2021/07/06 09:24:50;;;;;;;;;1.00;1.00;;;;;26.68;44.10;100365.31;5060885;28;47760;-78
2021/07/06 09:27:19;;;;;;;;;1.33;0.00;;;;;26.67;44.11;100369.03;5069993;28;45239;-78
2021/07/06 09:30:18;;;;;;;;;0.00;0.00;;;;;26.73;43.81;100393.97;5076212;28;45391;-78
2021/07/06 09:32:43;;;;;;;;;1.00;1.00;;;;;26.71;43.61;100402.22;5062560;28;45287;-78
2021/07/06 09:35:11;;;;;;;;;1.00;1.00;;;;;26.67;43.74;100408.22;5060731;28;47486;-78
2021/07/06 09:37:53;;;;;;;;;1.00;1.00;;;;;26.56;43.70;100401.78;5069864;28;45378;-78
2021/07/06 09:40:29;;;;;;;;;1.67;1.00;;;;;26.69;43.87;100436.31;5069854;28;45263;-79
2021/07/06 09:43:30;;;;;;;;;2.00;0.67;;;;;26.68;43.92;100449.88;5082488;28;45581;-78
2021/07/06 09:45:56;;;;;;;;;0.67;0.67;;;;;26.68;43.83;100456.03;5080820;28;47551;-78
2021/07/06 09:48:22;;;;;;;;;0.50;0.50;;;;;26.61;43.70;100460.63;5082455;28;45618;-78
2021/07/06 09:50:48;;;;;;;;;1.67;1.00;;;;;26.33;43.91;100416.56;5082548;28;45229;-78
2021/07/06 09:53:28;;;;;;;;;0.67;0.67;;;;;26.58;43.91;100467.22;5082685;27;45242;-78
2021/07/06 09:55:54;;;;;;;;;1.00;0.33;;;;;26.59;43.72;100474.19;5081769;28;45417;-78
2021/07/06 09:58:20;;;;;;;;;0.00;0.00;;;;;26.52;44.21;100470.75;5082335;28;45410;-78
2021/07/06 10:00:46;;;;;;;;;2.00;0.00;;;;;26.37;43.75;100445.22;5080942;28;45399;-78
2021/07/06 10:03:11;;;;;;;;;1.00;1.00;;;;;26.65;44.57;100490.34;5082708;28;45170;-78
2021/07/06 10:05:37;;;;;;;;;0.33;0.33;;;;;26.56;44.09;100469.28;5081840;28;45315;-78
2021/07/06 10:08:03;;;;;;;;;1.00;1.00;;;;;26.46;43.52;100466.31;5082176;27;45663;-78
2021/07/06 10:10:28;;;;;;;;;2.33;1.33;;;;;26.33;43.97;100440.56;5081425;28;45201;-78
2021/07/06 10:12:55;;;;;;;;;2.00;1.00;;;;;26.52;44.27;100476.09;5082080;28;45529;-78
2021/07/06 10:15:22;;;;;;;;;1.00;0.00;;;;;26.38;43.80;100462.03;5080359;28;47034;-78
2021/07/06 10:17:51;;;;;;;;;1.00;1.00;;;;;26.55;44.15;100505.00;5082064;27;45368;-78
2021/07/06 10:20:25;;;;;;;;;2.67;0.00;;;;;26.43;43.89;100480.88;5098456;27;45231;-78
2021/07/06 10:23:01;;;;;;;;;3.00;1.00;;;;;26.50;43.69;100499.50;5080814;27;45517;-78
2021/07/06 10:25:31;;;;;;;;;1.00;1.00;;;;;26.67;43.89;100517.63;5071770;28;46205;-78
2021/07/06 10:27:59;;;;;;;;;1.00;1.00;;;;;26.47;43.82;100514.09;5061690;28;45371;-78
2021/07/06 10:30:38;;;;;;;;;1.00;0.67;;;;;26.58;43.73;100509.06;5065211;28;45451;-78
2021/07/06 10:33:03;;;;;;;;;0.33;0.33;;;;;26.59;43.94;100529.41;5060028;28;45291;-78
2021/07/06 10:35:39;;;;;;;;;3.33;2.00;;;;;26.73;43.93;100532.75;5061455;28;46415;-78
2021/07/06 10:38:33;;;;;;;;;1.00;1.00;;;;;26.73;43.87;100549.56;5074609;28;45227;-78
2021/07/06 10:41:08;;;;;;;;;4.00;1.00;;;;;26.65;43.77;100543.72;5061438;28;45209;-78
2021/07/06 10:43:43;;;;;;;;;2.67;1.00;;;;;26.71;43.99;100546.31;5076788;28;46350;-78
2021/07/06 10:46:22;;;;;;;;;0.00;0.00;;;;;26.63;44.07;100543.91;5061002;28;46391;-77
2021/07/06 10:48:59;;;;;;;;;2.00;0.67;;;;;26.70;43.75;100543.88;5059010;28;45899;-78
2021/07/06 10:51:34;;;;;;;;;0.00;0.00;;;;;26.74;43.72;100571.75;5061329;28;45316;-78
2021/07/06 10:54:03;;;;;;;;;2.00;2.00;;;;;26.75;43.50;100573.38;5059873;28;45546;-78
2021/07/06 10:56:37;;;;;;;;;1.00;1.00;;;;;26.73;43.84;100576.25;5067269;28;45727;-78
2021/07/06 10:59:06;;;;;;;;;0.00;0.00;;;;;26.70;43.84;100581.25;5060301;28;45163;-78
2021/07/06 11:01:41;;;;;;;;;2.00;1.00;;;;;26.76;43.58;100588.34;5060707;28;45774;-79
2021/07/06 11:04:08;;;;;;;;;0.33;0.33;;;;;26.62;43.22;100567.13;5060853;28;45428;-78
2021/07/06 11:06:43;;;;;;;;;3.00;1.00;;;;;26.76;43.97;100575.00;5060819;28;46202;-77
2021/07/06 11:09:09;;;;;;;;;0.00;0.00;;;;;26.75;43.62;100581.41;5059418;28;45552;-78
2021/07/06 11:11:35;;;;;;;;;0.00;0.00;;;;;26.43;43.55;100528.88;5060964;28;45469;-78
2021/07/06 11:14:24;;;;;;;;;1.00;0.00;;;;;26.69;43.63;100555.56;5060778;28;45459;-78
2021/07/06 11:17:00;;;;;;;;;0.33;0.33;;;;;26.81;43.79;100559.16;5074430;28;46343;-78
2021/07/06 11:19:40;;;;;;;;;1.33;1.33;;;;;26.56;43.42;100519.16;5060901;28;45324;-78
2021/07/06 11:22:09;;;;;;;;;1.00;1.00;;;;;26.83;43.28;100569.59;5076234;28;45319;-78
2021/07/06 11:24:48;;;;;;;;;1.00;1.00;;;;;26.75;43.46;100557.38;5064810;28;45367;-78
2021/07/06 11:27:34;;;;;;;;;1.00;1.00;;;;;26.85;43.33;100578.22;5081008;28;46194;-77